sensor_id;sensor_type;location;lat;lon;timestamp;temperature;humidity
70271;SHT31;57680;54.292;18.598;2023-02-08T00:02:13;-0.40;89.13
70271;SHT31;57680;54.292;18.598;2023-02-08T00:04:39;-0.38;89.16
70271;SHT31;57680;54.292;18.598;2023-02-08T00:07:04;-0.38;89.08
70271;SHT31;57680;54.292;18.598;2023-02-08T00:09:30;-0.40;89.12
70271;SHT31;57680;54.292;18.598;2023-02-08T00:11:55;-0.40;89.01
70271;SHT31;57680;54.292;18.598;2023-02-08T00:14:21;-0.38;88.82
70271;SHT31;57680;54.292;18.598;2023-02-08T00:16:46;-0.33;88.86
70271;SHT31;57680;54.292;18.598;2023-02-08T00:19:12;-0.37;88.74
70271;SHT31;57680;54.292;18.598;2023-02-08T00:21:37;-0.36;88.76
70271;SHT31;57680;54.292;18.598;2023-02-08T00:24:03;-0.37;88.83
70271;SHT31;57680;54.292;18.598;2023-02-08T00:26:28;-0.41;88.60
70271;SHT31;57680;54.292;18.598;2023-02-08T00:28:54;-0.34;88.64
70271;SHT31;57680;54.292;18.598;2023-02-08T00:31:19;-0.37;88.31
70271;SHT31;57680;54.292;18.598;2023-02-08T00:33:45;-0.40;88.22
70271;SHT31;57680;54.292;18.598;2023-02-08T00:36:11;-0.43;88.38
70271;SHT31;57680;54.292;18.598;2023-02-08T00:38:37;-0.37;87.99
70271;SHT31;57680;54.292;18.598;2023-02-08T00:41:03;-0.34;88.54
70271;SHT31;57680;54.292;18.598;2023-02-08T00:43:29;-0.33;88.61
70271;SHT31;57680;54.292;18.598;2023-02-08T00:45:55;-0.24;88.05
70271;SHT31;57680;54.292;18.598;2023-02-08T00:48:21;-0.30;88.05
70271;SHT31;57680;54.292;18.598;2023-02-08T00:51:01;-0.23;87.73
70271;SHT31;57680;54.292;18.598;2023-02-08T00:53:27;-0.24;87.76
70271;SHT31;57680;54.292;18.598;2023-02-08T00:55:53;-0.20;87.80
70271;SHT31;57680;54.292;18.598;2023-02-08T00:58:19;-0.19;87.57
70271;SHT31;57680;54.292;18.598;2023-02-08T01:00:45;-0.20;87.60
70271;SHT31;57680;54.292;18.598;2023-02-08T01:03:10;-0.20;87.55
70271;SHT31;57680;54.292;18.598;2023-02-08T01:05:38;-0.21;87.60
70271;SHT31;57680;54.292;18.598;2023-02-08T01:08:04;-0.20;87.63
70271;SHT31;57680;54.292;18.598;2023-02-08T01:10:31;-0.21;87.67
70271;SHT31;57680;54.292;18.598;2023-02-08T01:12:56;-0.20;87.48
70271;SHT31;57680;54.292;18.598;2023-02-08T01:15:22;-0.19;87.06
70271;SHT31;57680;54.292;18.598;2023-02-08T01:17:52;-0.23;87.07
70271;SHT31;57680;54.292;18.598;2023-02-08T01:20:18;-0.24;86.99
70271;SHT31;57680;54.292;18.598;2023-02-08T01:22:44;-0.23;87.13
70271;SHT31;57680;54.292;18.598;2023-02-08T01:25:09;-0.24;87.28
70271;SHT31;57680;54.292;18.598;2023-02-08T01:27:35;-0.23;87.37
70271;SHT31;57680;54.292;18.598;2023-02-08T01:30:01;-0.29;87.28
70271;SHT31;57680;54.292;18.598;2023-02-08T01:32:26;-0.30;87.59
70271;SHT31;57680;54.292;18.598;2023-02-08T01:34:52;-0.31;87.63
70271;SHT31;57680;54.292;18.598;2023-02-08T01:37:17;-0.34;87.72
70271;SHT31;57680;54.292;18.598;2023-02-08T01:39:42;-0.38;87.80
70271;SHT31;57680;54.292;18.598;2023-02-08T01:42:15;-0.38;87.66
70271;SHT31;57680;54.292;18.598;2023-02-08T01:47:29;-0.47;87.65
70271;SHT31;57680;54.292;18.598;2023-02-08T01:49:54;-0.47;87.97
70271;SHT31;57680;54.292;18.598;2023-02-08T01:52:23;-0.43;88.09
70271;SHT31;57680;54.292;18.598;2023-02-08T01:55:27;-0.38;88.67
70271;SHT31;57680;54.292;18.598;2023-02-08T01:57:57;-0.37;88.32
70271;SHT31;57680;54.292;18.598;2023-02-08T02:00:24;-0.33;87.36
70271;SHT31;57680;54.292;18.598;2023-02-08T02:02:53;-0.38;87.44
70271;SHT31;57680;54.292;18.598;2023-02-08T02:05:21;-0.41;87.43
70271;SHT31;57680;54.292;18.598;2023-02-08T02:07:50;-0.37;87.19
70271;SHT31;57680;54.292;18.598;2023-02-08T02:10:26;-0.40;87.48
70271;SHT31;57680;54.292;18.598;2023-02-08T02:12:54;-0.41;87.55
70271;SHT31;57680;54.292;18.598;2023-02-08T02:15:21;-0.43;87.67
70271;SHT31;57680;54.292;18.598;2023-02-08T02:17:46;-0.44;87.71
70271;SHT31;57680;54.292;18.598;2023-02-08T02:20:33;-0.43;87.68
70271;SHT31;57680;54.292;18.598;2023-02-08T02:28:43;-0.41;87.21
70271;SHT31;57680;54.292;18.598;2023-02-08T02:42:16;-0.43;87.01
70271;SHT31;57680;54.292;18.598;2023-02-08T02:48:11;-0.44;86.78
70271;SHT31;57680;54.292;18.598;2023-02-08T02:50:47;-0.45;86.90
70271;SHT31;57680;54.292;18.598;2023-02-08T02:53:23;-0.44;87.10
70271;SHT31;57680;54.292;18.598;2023-02-08T02:55:57;-0.45;86.99
70271;SHT31;57680;54.292;18.598;2023-02-08T02:58:26;-0.44;86.67
70271;SHT31;57680;54.292;18.598;2023-02-08T03:00:54;-0.40;86.67
70271;SHT31;57680;54.292;18.598;2023-02-08T03:03:23;-0.47;86.97
70271;SHT31;57680;54.292;18.598;2023-02-08T03:05:52;-0.47;86.76
70271;SHT31;57680;54.292;18.598;2023-02-08T03:21:45;-0.47;86.80
70271;SHT31;57680;54.292;18.598;2023-02-08T03:24:32;-0.51;87.02
70271;SHT31;57680;54.292;18.598;2023-02-08T03:30:08;-0.44;86.44
70271;SHT31;57680;54.292;18.598;2023-02-08T03:32:45;-0.45;86.92
70271;SHT31;57680;54.292;18.598;2023-02-08T03:38:07;-0.47;86.55
70271;SHT31;57680;54.292;18.598;2023-02-08T03:40:35;-0.41;86.42
70271;SHT31;57680;54.292;18.598;2023-02-08T03:43:06;-0.51;86.58
70271;SHT31;57680;54.292;18.598;2023-02-08T03:45:39;-0.51;86.91
70271;SHT31;57680;54.292;18.598;2023-02-08T03:48:09;-0.54;87.00
70271;SHT31;57680;54.292;18.598;2023-02-08T03:50:38;-0.54;86.28
70271;SHT31;57680;54.292;18.598;2023-02-08T03:53:06;-0.54;86.57
70271;SHT31;57680;54.292;18.598;2023-02-08T03:55:34;-0.56;86.62
70271;SHT31;57680;54.292;18.598;2023-02-08T03:58:25;-0.56;86.72
70271;SHT31;57680;54.292;18.598;2023-02-08T04:01:17;-0.60;86.72
70271;SHT31;57680;54.292;18.598;2023-02-08T04:03:46;-0.58;86.63
70271;SHT31;57680;54.292;18.598;2023-02-08T04:06:15;-0.60;86.59
70271;SHT31;57680;54.292;18.598;2023-02-08T04:08:40;-0.64;86.76
70271;SHT31;57680;54.292;18.598;2023-02-08T04:11:06;-0.62;86.96
70271;SHT31;57680;54.292;18.598;2023-02-08T04:13:31;-0.67;86.88
70271;SHT31;57680;54.292;18.598;2023-02-08T04:15:57;-0.67;86.37
70271;SHT31;57680;54.292;18.598;2023-02-08T04:18:22;-0.67;86.43
70271;SHT31;57680;54.292;18.598;2023-02-08T04:20:48;-0.71;86.36
70271;SHT31;57680;54.292;18.598;2023-02-08T04:23:13;-0.74;86.75
70271;SHT31;57680;54.292;18.598;2023-02-08T04:25:39;-0.80;87.06
70271;SHT31;57680;54.292;18.598;2023-02-08T04:28:04;-0.77;86.77
70271;SHT31;57680;54.292;18.598;2023-02-08T04:30:29;-0.84;86.68
70271;SHT31;57680;54.292;18.598;2023-02-08T04:32:55;-0.82;87.02
70271;SHT31;57680;54.292;18.598;2023-02-08T04:35:20;-0.82;86.88
70271;SHT31;57680;54.292;18.598;2023-02-08T04:37:46;-0.88;86.99
70271;SHT31;57680;54.292;18.598;2023-02-08T04:40:11;-0.87;86.98
70271;SHT31;57680;54.292;18.598;2023-02-08T04:42:37;-0.87;87.12
70271;SHT31;57680;54.292;18.598;2023-02-08T04:45:02;-0.91;87.30
70271;SHT31;57680;54.292;18.598;2023-02-08T04:47:28;-0.93;87.26
70271;SHT31;57680;54.292;18.598;2023-02-08T04:49:53;-0.92;87.29
70271;SHT31;57680;54.292;18.598;2023-02-08T04:52:19;-0.91;87.18
70271;SHT31;57680;54.292;18.598;2023-02-08T04:54:44;-0.89;87.30
70271;SHT31;57680;54.292;18.598;2023-02-08T04:57:13;-0.92;87.14
70271;SHT31;57680;54.292;18.598;2023-02-08T04:59:39;-0.96;87.08
70271;SHT31;57680;54.292;18.598;2023-02-08T05:02:05;-0.98;86.90
70271;SHT31;57680;54.292;18.598;2023-02-08T05:04:31;-0.98;86.95
70271;SHT31;57680;54.292;18.598;2023-02-08T05:06:57;-1.01;86.94
70271;SHT31;57680;54.292;18.598;2023-02-08T05:09:23;-1.02;86.93
70271;SHT31;57680;54.292;18.598;2023-02-08T05:11:48;-1.06;86.79
70271;SHT31;57680;54.292;18.598;2023-02-08T05:14:14;-1.11;86.92
70271;SHT31;57680;54.292;18.598;2023-02-08T05:16:40;-1.13;86.92
70271;SHT31;57680;54.292;18.598;2023-02-08T05:19:05;-1.12;87.10
70271;SHT31;57680;54.292;18.598;2023-02-08T05:21:31;-1.15;87.30
70271;SHT31;57680;54.292;18.598;2023-02-08T05:23:56;-1.19;87.32
70271;SHT31;57680;54.292;18.598;2023-02-08T05:26:22;-1.19;87.46
70271;SHT31;57680;54.292;18.598;2023-02-08T05:28:47;-1.23;87.56
70271;SHT31;57680;54.292;18.598;2023-02-08T05:31:16;-1.22;87.05
70271;SHT31;57680;54.292;18.598;2023-02-08T05:33:42;-1.22;87.52
70271;SHT31;57680;54.292;18.598;2023-02-08T05:36:08;-1.25;87.78
70271;SHT31;57680;54.292;18.598;2023-02-08T05:38:33;-1.26;87.81
70271;SHT31;57680;54.292;18.598;2023-02-08T05:40:59;-1.23;87.71
70271;SHT31;57680;54.292;18.598;2023-02-08T05:43:25;-1.23;87.25
70271;SHT31;57680;54.292;18.598;2023-02-08T05:45:51;-1.29;87.60
70271;SHT31;57680;54.292;18.598;2023-02-08T05:48:16;-1.28;87.57
70271;SHT31;57680;54.292;18.598;2023-02-08T05:50:42;-1.32;87.56
70271;SHT31;57680;54.292;18.598;2023-02-08T05:53:08;-1.30;87.90
70271;SHT31;57680;54.292;18.598;2023-02-08T05:55:33;-1.29;87.75
70271;SHT31;57680;54.292;18.598;2023-02-08T05:57:59;-1.26;88.38
70271;SHT31;57680;54.292;18.598;2023-02-08T06:00:24;-1.32;87.05
70271;SHT31;57680;54.292;18.598;2023-02-08T06:02:50;-1.36;87.02
70271;SHT31;57680;54.292;18.598;2023-02-08T06:05:16;-1.39;87.04
70271;SHT31;57680;54.292;18.598;2023-02-08T06:07:41;-1.44;87.19
70271;SHT31;57680;54.292;18.598;2023-02-08T06:10:07;-1.47;87.18
70271;SHT31;57680;54.292;18.598;2023-02-08T06:12:33;-1.49;87.09
70271;SHT31;57680;54.292;18.598;2023-02-08T06:14:58;-1.47;86.99
70271;SHT31;57680;54.292;18.598;2023-02-08T06:17:24;-1.50;86.95
70271;SHT31;57680;54.292;18.598;2023-02-08T06:19:49;-1.54;86.98
70271;SHT31;57680;54.292;18.598;2023-02-08T06:22:15;-1.51;87.22
70271;SHT31;57680;54.292;18.598;2023-02-08T06:24:40;-1.54;87.31
70271;SHT31;57680;54.292;18.598;2023-02-08T06:27:06;-1.49;87.30
70271;SHT31;57680;54.292;18.598;2023-02-08T06:29:31;-1.50;87.17
70271;SHT31;57680;54.292;18.598;2023-02-08T06:31:57;-1.49;87.21
70271;SHT31;57680;54.292;18.598;2023-02-08T06:34:22;-1.47;87.42
70271;SHT31;57680;54.292;18.598;2023-02-08T06:36:48;-1.46;87.28
70271;SHT31;57680;54.292;18.598;2023-02-08T06:39:13;-1.42;87.26
70271;SHT31;57680;54.292;18.598;2023-02-08T06:41:39;-1.38;86.95
70271;SHT31;57680;54.292;18.598;2023-02-08T06:44:04;-1.36;86.53
70271;SHT31;57680;54.292;18.598;2023-02-08T06:46:30;-1.33;86.32
70271;SHT31;57680;54.292;18.598;2023-02-08T06:48:55;-1.36;86.08
70271;SHT31;57680;54.292;18.598;2023-02-08T06:51:22;-1.35;85.99
70271;SHT31;57680;54.292;18.598;2023-02-08T06:53:47;-1.35;86.11
70271;SHT31;57680;54.292;18.598;2023-02-08T06:56:13;-1.30;85.90
70271;SHT31;57680;54.292;18.598;2023-02-08T06:58:38;-1.26;85.88
70271;SHT31;57680;54.292;18.598;2023-02-08T07:01:04;-1.25;85.70
70271;SHT31;57680;54.292;18.598;2023-02-08T07:03:29;-1.17;85.40
70271;SHT31;57680;54.292;18.598;2023-02-08T07:05:55;-1.19;85.32
70271;SHT31;57680;54.292;18.598;2023-02-08T07:08:20;-1.12;85.41
70271;SHT31;57680;54.292;18.598;2023-02-08T07:10:46;-1.13;85.15
70271;SHT31;57680;54.292;18.598;2023-02-08T07:13:12;-1.09;84.70
70271;SHT31;57680;54.292;18.598;2023-02-08T07:15:38;-1.02;84.04
70271;SHT31;57680;54.292;18.598;2023-02-08T07:18:03;-0.99;83.67
70271;SHT31;57680;54.292;18.598;2023-02-08T07:20:29;-0.93;83.59
70271;SHT31;57680;54.292;18.598;2023-02-08T07:22:54;-0.93;83.65
70271;SHT31;57680;54.292;18.598;2023-02-08T07:25:20;-0.91;83.22
70271;SHT31;57680;54.292;18.598;2023-02-08T07:27:46;-0.87;83.03
70271;SHT31;57680;54.292;18.598;2023-02-08T07:30:11;-0.78;82.70
70271;SHT31;57680;54.292;18.598;2023-02-08T07:32:37;-0.71;82.32
70271;SHT31;57680;54.292;18.598;2023-02-08T07:35:02;-0.62;82.22
70271;SHT31;57680;54.292;18.598;2023-02-08T07:37:28;-0.51;81.65
70271;SHT31;57680;54.292;18.598;2023-02-08T07:39:56;-0.36;80.93
70271;SHT31;57680;54.292;18.598;2023-02-08T07:42:21;-0.23;80.31
70271;SHT31;57680;54.292;18.598;2023-02-08T07:44:46;-0.34;79.63
70271;SHT31;57680;54.292;18.598;2023-02-08T07:47:12;-0.31;79.80
70271;SHT31;57680;54.292;18.598;2023-02-08T07:49:37;-0.29;79.69
70271;SHT31;57680;54.292;18.598;2023-02-08T07:52:03;-0.21;79.81
70271;SHT31;57680;54.292;18.598;2023-02-08T07:54:29;-0.29;79.69
70271;SHT31;57680;54.292;18.598;2023-02-08T07:56:55;-0.23;79.41
70271;SHT31;57680;54.292;18.598;2023-02-08T07:59:21;-0.27;79.15
70271;SHT31;57680;54.292;18.598;2023-02-08T08:01:47;-0.24;79.26
70271;SHT31;57680;54.292;18.598;2023-02-08T08:04:12;-0.24;78.71
70271;SHT31;57680;54.292;18.598;2023-02-08T08:06:37;-0.24;79.10
70271;SHT31;57680;54.292;18.598;2023-02-08T08:09:03;-0.30;79.00
70271;SHT31;57680;54.292;18.598;2023-02-08T08:11:30;-0.38;79.27
70271;SHT31;57680;54.292;18.598;2023-02-08T08:13:55;-0.38;79.58
70271;SHT31;57680;54.292;18.598;2023-02-08T08:16:21;-0.37;79.55
70271;SHT31;57680;54.292;18.598;2023-02-08T08:18:46;-0.37;79.52
70271;SHT31;57680;54.292;18.598;2023-02-08T08:21:12;-0.31;79.80
70271;SHT31;57680;54.292;18.598;2023-02-08T08:23:39;-0.26;79.08
70271;SHT31;57680;54.292;18.598;2023-02-08T08:26:16;-0.34;79.61
70271;SHT31;57680;54.292;18.598;2023-02-08T08:28:42;-0.34;79.24
70271;SHT31;57680;54.292;18.598;2023-02-08T08:31:13;-0.36;79.10
70271;SHT31;57680;54.292;18.598;2023-02-08T08:33:39;-0.30;79.30
70271;SHT31;57680;54.292;18.598;2023-02-08T08:36:05;-0.36;79.34
70271;SHT31;57680;54.292;18.598;2023-02-08T08:38:31;-0.37;79.99
70271;SHT31;57680;54.292;18.598;2023-02-08T08:40:57;-0.41;79.94
70271;SHT31;57680;54.292;18.598;2023-02-08T08:43:22;-0.26;79.91
70271;SHT31;57680;54.292;18.598;2023-02-08T08:45:47;-0.10;79.68
70271;SHT31;57680;54.292;18.598;2023-02-08T08:48:13;0.07;78.69
70271;SHT31;57680;54.292;18.598;2023-02-08T08:50:38;0.11;78.73
70271;SHT31;57680;54.292;18.598;2023-02-08T08:53:04;0.22;78.60
70271;SHT31;57680;54.292;18.598;2023-02-08T08:55:30;0.25;77.43
70271;SHT31;57680;54.292;18.598;2023-02-08T08:57:55;0.35;77.74
70271;SHT31;57680;54.292;18.598;2023-02-08T09:00:21;0.42;77.61
70271;SHT31;57680;54.292;18.598;2023-02-08T09:02:47;0.44;77.47
70271;SHT31;57680;54.292;18.598;2023-02-08T09:05:12;0.38;77.28
70271;SHT31;57680;54.292;18.598;2023-02-08T09:07:38;0.49;77.40
70271;SHT31;57680;54.292;18.598;2023-02-08T09:10:03;0.63;76.84
70271;SHT31;57680;54.292;18.598;2023-02-08T09:12:29;0.83;76.13
70271;SHT31;57680;54.292;18.598;2023-02-08T09:14:55;1.13;75.98
70271;SHT31;57680;54.292;18.598;2023-02-08T09:17:20;0.84;75.15
70271;SHT31;57680;54.292;18.598;2023-02-08T09:19:46;0.52;75.51
70271;SHT31;57680;54.292;18.598;2023-02-08T09:22:12;0.44;76.83
70271;SHT31;57680;54.292;18.598;2023-02-08T09:24:37;0.24;77.27
70271;SHT31;57680;54.292;18.598;2023-02-08T09:27:03;0.04;77.89
70271;SHT31;57680;54.292;18.598;2023-02-08T09:29:28;-0.21;78.53
70271;SHT31;57680;54.292;18.598;2023-02-08T09:31:54;-0.24;79.22
70271;SHT31;57680;54.292;18.598;2023-02-08T09:34:20;-0.10;78.91
70271;SHT31;57680;54.292;18.598;2023-02-08T09:36:46;-0.06;78.78
70271;SHT31;57680;54.292;18.598;2023-02-08T09:39:17;0.11;78.50
70271;SHT31;57680;54.292;18.598;2023-02-08T09:47:27;0.49;77.13
70271;SHT31;57680;54.292;18.598;2023-02-08T09:50:12;0.58;76.70
70271;SHT31;57680;54.292;18.598;2023-02-08T09:52:46;0.60;76.41
70271;SHT31;57680;54.292;18.598;2023-02-08T09:55:20;0.66;76.41
70271;SHT31;57680;54.292;18.598;2023-02-08T09:57:50;0.73;76.38
70271;SHT31;57680;54.292;18.598;2023-02-08T10:00:20;0.73;75.44
70271;SHT31;57680;54.292;18.598;2023-02-08T10:02:50;0.89;75.53
70271;SHT31;57680;54.292;18.598;2023-02-08T10:05:23;1.30;74.80
70271;SHT31;57680;54.292;18.598;2023-02-08T10:07:49;1.99;72.35
70271;SHT31;57680;54.292;18.598;2023-02-08T10:10:20;2.68;70.73
70271;SHT31;57680;54.292;18.598;2023-02-08T10:12:58;3.02;69.31
70271;SHT31;57680;54.292;18.598;2023-02-08T10:15:36;3.24;67.80
70271;SHT31;57680;54.292;18.598;2023-02-08T10:23:49;3.70;64.90
70271;SHT31;57680;54.292;18.598;2023-02-08T10:26:25;3.51;65.72
70271;SHT31;57680;54.292;18.598;2023-02-08T10:39:55;2.78;69.55
70271;SHT31;57680;54.292;18.598;2023-02-08T10:42:22;3.30;68.62
70271;SHT31;57680;54.292;18.598;2023-02-08T10:50:05;2.34;69.22
70271;SHT31;57680;54.292;18.598;2023-02-08T10:52:32;2.00;70.53
70271;SHT31;57680;54.292;18.598;2023-02-08T10:54:58;1.71;71.65
70271;SHT31;57680;54.292;18.598;2023-02-08T10:57:30;1.58;72.97
70271;SHT31;57680;54.292;18.598;2023-02-08T11:02:22;1.52;72.98
70271;SHT31;57680;54.292;18.598;2023-02-08T11:05:03;1.45;72.97
70271;SHT31;57680;54.292;18.598;2023-02-08T11:07:29;1.50;72.80
70271;SHT31;57680;54.292;18.598;2023-02-08T11:12:39;1.89;72.41
70271;SHT31;57680;54.292;18.598;2023-02-08T11:15:05;1.83;71.79
70271;SHT31;57680;54.292;18.598;2023-02-08T11:17:43;1.87;72.60
70271;SHT31;57680;54.292;18.598;2023-02-08T11:20:21;2.07;71.51
70271;SHT31;57680;54.292;18.598;2023-02-08T11:22:49;2.24;71.08
70271;SHT31;57680;54.292;18.598;2023-02-08T11:25:51;2.11;70.75
70271;SHT31;57680;54.292;18.598;2023-02-08T11:28:28;1.99;71.98
70271;SHT31;57680;54.292;18.598;2023-02-08T11:30:56;2.19;71.41
70271;SHT31;57680;54.292;18.598;2023-02-08T11:33:22;2.31;70.91
70271;SHT31;57680;54.292;18.598;2023-02-08T11:36:02;2.57;70.12
70271;SHT31;57680;54.292;18.598;2023-02-08T11:38:29;2.75;69.65
70271;SHT31;57680;54.292;18.598;2023-02-08T11:40:57;2.89;68.88
70271;SHT31;57680;54.292;18.598;2023-02-08T11:43:27;3.02;67.77
70271;SHT31;57680;54.292;18.598;2023-02-08T11:45:55;3.20;68.56
70271;SHT31;57680;54.292;18.598;2023-02-08T11:48:56;3.05;67.93
70271;SHT31;57680;54.292;18.598;2023-02-08T11:51:27;2.80;68.89
70271;SHT31;57680;54.292;18.598;2023-02-08T11:53:54;2.47;70.52
70271;SHT31;57680;54.292;18.598;2023-02-08T11:56:26;2.20;71.06
70271;SHT31;57680;54.292;18.598;2023-02-08T11:59:00;2.06;72.09
70271;SHT31;57680;54.292;18.598;2023-02-08T12:01:32;1.78;71.36
70271;SHT31;57680;54.292;18.598;2023-02-08T12:03:59;1.79;72.61
70271;SHT31;57680;54.292;18.598;2023-02-08T12:07:13;1.59;72.00
70271;SHT31;57680;54.292;18.598;2023-02-08T12:20:41;1.14;72.75
70271;SHT31;57680;54.292;18.598;2023-02-08T12:23:18;1.10;72.56
70271;SHT31;57680;54.292;18.598;2023-02-08T12:26:13;1.21;72.42
70271;SHT31;57680;54.292;18.598;2023-02-08T12:34:56;1.51;70.83
70271;SHT31;57680;54.292;18.598;2023-02-08T12:54:12;1.41;71.10
70271;SHT31;57680;54.292;18.598;2023-02-08T12:56:42;1.31;71.75
70271;SHT31;57680;54.292;18.598;2023-02-08T12:59:20;1.23;72.11
70271;SHT31;57680;54.292;18.598;2023-02-08T13:01:50;1.13;72.33
70271;SHT31;57680;54.292;18.598;2023-02-08T13:04:41;1.24;71.97
70271;SHT31;57680;54.292;18.598;2023-02-08T13:12:44;1.16;72.57
70271;SHT31;57680;54.292;18.598;2023-02-08T13:15:19;1.13;72.49
70271;SHT31;57680;54.292;18.598;2023-02-08T13:17:51;1.10;72.61
70271;SHT31;57680;54.292;18.598;2023-02-08T13:25:39;1.19;72.26
70271;SHT31;57680;54.292;18.598;2023-02-08T13:28:07;1.13;72.26
70271;SHT31;57680;54.292;18.598;2023-02-08T13:30:36;1.01;72.23
70271;SHT31;57680;54.292;18.598;2023-02-08T13:33:28;1.01;72.51
70271;SHT31;57680;54.292;18.598;2023-02-08T13:35:56;0.93;72.29
70271;SHT31;57680;54.292;18.598;2023-02-08T13:38:26;0.90;72.70
70271;SHT31;57680;54.292;18.598;2023-02-08T13:41:20;0.89;72.69
70271;SHT31;57680;54.292;18.598;2023-02-08T13:44:07;0.75;72.67
70271;SHT31;57680;54.292;18.598;2023-02-08T13:46:43;0.75;73.13
70271;SHT31;57680;54.292;18.598;2023-02-08T13:57:58;0.52;73.94
70271;SHT31;57680;54.292;18.598;2023-02-08T14:05:50;0.38;73.77
70271;SHT31;57680;54.292;18.598;2023-02-08T14:08:30;0.35;74.17
70271;SHT31;57680;54.292;18.598;2023-02-08T14:16:44;0.19;74.93
70271;SHT31;57680;54.292;18.598;2023-02-08T14:21:46;0.08;75.07
70271;SHT31;57680;54.292;18.598;2023-02-08T14:26:46;0.00;75.21
70271;SHT31;57680;54.292;18.598;2023-02-08T14:29:22;0.00;75.20
70271;SHT31;57680;54.292;18.598;2023-02-08T14:31:49;-0.12;75.32
70271;SHT31;57680;54.292;18.598;2023-02-08T14:34:27;-0.10;75.14
70271;SHT31;57680;54.292;18.598;2023-02-08T14:39:28;-0.27;75.83
70271;SHT31;57680;54.292;18.598;2023-02-08T14:41:58;-0.34;76.07
70271;SHT31;57680;54.292;18.598;2023-02-08T14:50:26;-0.60;76.91
70271;SHT31;57680;54.292;18.598;2023-02-08T14:55:24;-0.77;77.76
70271;SHT31;57680;54.292;18.598;2023-02-08T14:57:56;-0.81;77.86
70271;SHT31;57680;54.292;18.598;2023-02-08T15:00:26;-0.82;78.03
70271;SHT31;57680;54.292;18.598;2023-02-08T15:02:53;-0.89;78.12
70271;SHT31;57680;54.292;18.598;2023-02-08T15:05:26;-0.92;78.30
70271;SHT31;57680;54.292;18.598;2023-02-08T15:10:19;-1.08;78.61
70271;SHT31;57680;54.292;18.598;2023-02-08T15:12:49;-1.13;78.97
70271;SHT31;57680;54.292;18.598;2023-02-08T15:15:29;-1.22;79.28
70271;SHT31;57680;54.292;18.598;2023-02-08T15:17:56;-1.29;79.69
70271;SHT31;57680;54.292;18.598;2023-02-08T15:20:27;-1.33;80.10
70271;SHT31;57680;54.292;18.598;2023-02-08T15:23:03;-1.35;80.31
70271;SHT31;57680;54.292;18.598;2023-02-08T15:25:34;-1.36;80.35
70271;SHT31;57680;54.292;18.598;2023-02-08T15:28:20;-1.44;80.66
70271;SHT31;57680;54.292;18.598;2023-02-08T15:30:53;-1.50;80.90
70271;SHT31;57680;54.292;18.598;2023-02-08T15:33:20;-1.61;81.12
70271;SHT31;57680;54.292;18.598;2023-02-08T15:36:02;-1.70;81.42
70271;SHT31;57680;54.292;18.598;2023-02-08T15:38:29;-1.82;81.76
70271;SHT31;57680;54.292;18.598;2023-02-08T15:41:08;-1.90;81.87
70271;SHT31;57680;54.292;18.598;2023-02-08T15:43:36;-2.04;82.14
70271;SHT31;57680;54.292;18.598;2023-02-08T15:46:04;-2.12;82.66
70271;SHT31;57680;54.292;18.598;2023-02-08T15:48:31;-2.19;83.01
70271;SHT31;57680;54.292;18.598;2023-02-08T15:50:59;-2.28;83.30
70271;SHT31;57680;54.292;18.598;2023-02-08T15:53:26;-2.39;83.54
70271;SHT31;57680;54.292;18.598;2023-02-08T15:55:56;-2.45;83.80
70271;SHT31;57680;54.292;18.598;2023-02-08T15:58:42;-2.48;84.03
70271;SHT31;57680;54.292;18.598;2023-02-08T16:01:16;-2.49;84.26
70271;SHT31;57680;54.292;18.598;2023-02-08T16:03:54;-2.46;84.48
70271;SHT31;57680;54.292;18.598;2023-02-08T16:06:29;-2.46;84.24
70271;SHT31;57680;54.292;18.598;2023-02-08T16:09:00;-2.50;83.92
70271;SHT31;57680;54.292;18.598;2023-02-08T16:11:32;-2.53;84.23
70271;SHT31;57680;54.292;18.598;2023-02-08T16:13:59;-2.46;84.03
70271;SHT31;57680;54.292;18.598;2023-02-08T16:16:38;-2.49;83.80
70271;SHT31;57680;54.292;18.598;2023-02-08T16:19:28;-2.57;83.86
70271;SHT31;57680;54.292;18.598;2023-02-08T16:21:56;-2.57;83.83
70271;SHT31;57680;54.292;18.598;2023-02-08T16:24:26;-2.57;83.99
70271;SHT31;57680;54.292;18.598;2023-02-08T16:27:06;-2.66;83.70
70271;SHT31;57680;54.292;18.598;2023-02-08T16:29:39;-2.74;83.78
70271;SHT31;57680;54.292;18.598;2023-02-08T16:32:16;-2.83;84.24
70271;SHT31;57680;54.292;18.598;2023-02-08T16:34:43;-2.93;84.21
70271;SHT31;57680;54.292;18.598;2023-02-08T16:37:32;-2.97;84.38
70271;SHT31;57680;54.292;18.598;2023-02-08T17:16:46;-3.62;86.58
70271;SHT31;57680;54.292;18.598;2023-02-08T17:20:42;-3.72;86.82
70271;SHT31;57680;54.292;18.598;2023-02-08T17:23:09;-3.70;87.15
70271;SHT31;57680;54.292;18.598;2023-02-08T17:25:35;-3.74;87.09
70271;SHT31;57680;54.292;18.598;2023-02-08T17:28:13;-3.76;87.18
70271;SHT31;57680;54.292;18.598;2023-02-08T17:30:41;-3.76;87.28
70271;SHT31;57680;54.292;18.598;2023-02-08T17:33:07;-3.79;87.60
70271;SHT31;57680;54.292;18.598;2023-02-08T17:35:34;-3.83;87.44
70271;SHT31;57680;54.292;18.598;2023-02-08T17:37:59;-3.86;87.64
70271;SHT31;57680;54.292;18.598;2023-02-08T17:40:31;-3.86;87.74
70271;SHT31;57680;54.292;18.598;2023-02-08T17:43:01;-3.91;87.74
70271;SHT31;57680;54.292;18.598;2023-02-08T17:45:27;-3.91;87.93
70271;SHT31;57680;54.292;18.598;2023-02-08T17:47:54;-3.96;87.82
70271;SHT31;57680;54.292;18.598;2023-02-08T17:50:20;-3.98;87.84
70271;SHT31;57680;54.292;18.598;2023-02-08T17:52:47;-4.00;88.11
70271;SHT31;57680;54.292;18.598;2023-02-08T17:55:16;-4.01;88.48
70271;SHT31;57680;54.292;18.598;2023-02-08T17:57:44;-4.05;88.50
70271;SHT31;57680;54.292;18.598;2023-02-08T18:00:13;-4.08;88.46
70271;SHT31;57680;54.292;18.598;2023-02-08T18:02:48;-4.14;88.47
70271;SHT31;57680;54.292;18.598;2023-02-08T18:05:18;-4.19;88.67
70271;SHT31;57680;54.292;18.598;2023-02-08T18:07:44;-4.24;88.75
70271;SHT31;57680;54.292;18.598;2023-02-08T18:10:12;-4.28;88.68
70271;SHT31;57680;54.292;18.598;2023-02-08T18:12:38;-4.32;88.97
70271;SHT31;57680;54.292;18.598;2023-02-08T18:15:05;-4.40;89.22
70271;SHT31;57680;54.292;18.598;2023-02-08T18:17:32;-4.41;89.31
70271;SHT31;57680;54.292;18.598;2023-02-08T18:19:58;-4.42;89.49
70271;SHT31;57680;54.292;18.598;2023-02-08T18:22:24;-4.48;89.59
70271;SHT31;57680;54.292;18.598;2023-02-08T18:24:49;-4.51;89.58
70271;SHT31;57680;54.292;18.598;2023-02-08T18:27:15;-4.58;89.74
70271;SHT31;57680;54.292;18.598;2023-02-08T18:29:40;-4.62;89.77
70271;SHT31;57680;54.292;18.598;2023-02-08T18:32:05;-4.66;89.79
70271;SHT31;57680;54.292;18.598;2023-02-08T18:34:31;-4.69;89.95
70271;SHT31;57680;54.292;18.598;2023-02-08T18:36:56;-4.75;90.04
70271;SHT31;57680;54.292;18.598;2023-02-08T18:39:22;-4.75;90.25
70271;SHT31;57680;54.292;18.598;2023-02-08T18:41:49;-4.79;90.34
70271;SHT31;57680;54.292;18.598;2023-02-08T18:44:15;-4.77;90.45
70271;SHT31;57680;54.292;18.598;2023-02-08T18:46:40;-4.82;90.49
70271;SHT31;57680;54.292;18.598;2023-02-08T18:49:05;-4.75;91.20